Time;durP1;ratioP1;P1;durP2;ratioP2;P2;SDS_P1;SDS_P2;PMS_P1;PMS_P2;Temp;Humidity;BMP_temperature;BMP_pressure;BME280_temperature;BME280_humidity;BME280_pressure;Samples;Min_cycle;Max_cycle;Signal;HPM_P1;HPM_P2
2022/05/08 00:00:44;;;;;;;20.27;16.92;;;13.60;99.90;;;;;;2485777;23;20012;-73
2022/05/08 00:01:45;;;;;;;18.85;16.27;;;13.60;99.90;;;;;;2484567;23;20452;-76
2022/05/08 00:02:46;;;;;;;19.42;16.52;;;13.60;99.90;;;;;;2484156;23;20031;-75
2022/05/08 00:03:48;;;;;;;19.40;16.05;;;13.60;99.90;;;;;;2495828;23;20023;-75
2022/05/08 00:04:52;;;;;;;21.15;16.95;;;13.50;99.90;;;;;;2484901;23;20011;-76
2022/05/08 00:05:53;;;;;;;20.35;16.20;;;13.50;99.90;;;;;;2484945;23;20008;-76
2022/05/08 00:06:54;;;;;;;18.88;16.30;;;13.50;99.90;;;;;;2484400;23;20035;-76
2022/05/08 00:07:54;;;;;;;20.85;16.80;;;13.50;99.90;;;;;;2485178;23;20022;-75
2022/05/08 00:08:55;;;;;;;21.60;16.23;;;13.50;99.90;;;;;;2485064;23;20319;-75
2022/05/08 00:09:56;;;;;;;19.50;16.27;;;13.40;99.90;;;;;;2484591;23;20011;-76
2022/05/08 00:10:57;;;;;;;19.35;16.55;;;13.40;99.90;;;;;;2484886;23;20016;-75
2022/05/08 00:12:00;;;;;;;21.02;16.38;;;13.40;99.90;;;;;;2484063;23;20437;-75
2022/05/08 00:13:01;;;;;;;20.40;16.17;;;13.40;99.90;;;;;;2484718;23;20019;-75
2022/05/08 00:14:01;;;;;;;19.15;15.63;;;13.40;99.90;;;;;;2495849;23;20019;-76
2022/05/08 00:15:03;;;;;;;19.50;16.38;;;13.30;99.90;;;;;;2496020;23;20015;-76
2022/05/08 00:16:04;;;;;;;18.60;15.77;;;13.30;99.90;;;;;;2495712;23;20450;-76
2022/05/08 00:17:05;;;;;;;19.00;15.77;;;13.30;99.90;;;;;;2495494;23;20078;-75
2022/05/08 00:18:07;;;;;;;19.33;15.85;;;13.30;99.90;;;;;;2484762;23;20310;-77
2022/05/08 00:19:07;;;;;;;20.88;16.50;;;13.30;99.90;;;;;;2484982;23;20011;-76
2022/05/08 00:20:08;;;;;;;20.23;16.90;;;13.30;99.90;;;;;;2484746;23;20684;-75
2022/05/08 00:21:09;;;;;;;19.58;16.15;;;13.30;99.90;;;;;;2484375;23;20029;-75
2022/05/08 00:22:11;;;;;;;20.65;16.33;;;13.30;99.90;;;;;;2484237;23;20798;-76
2022/05/08 00:23:12;;;;;;;18.33;16.02;;;13.20;99.90;;;;;;2485054;23;20382;-76
2022/05/08 00:24:14;;;;;;;19.48;16.10;;;13.20;99.90;;;;;;2484086;23;20000;-76
2022/05/08 00:25:15;;;;;;;17.95;16.05;;;13.20;99.90;;;;;;2484149;23;20154;-75
2022/05/08 00:26:18;;;;;;;22.42;16.63;;;13.20;99.90;;;;;;2495136;23;20082;-76
2022/05/08 00:27:19;;;;;;;22.55;16.40;;;13.20;99.90;;;;;;2483396;23;20007;-75
2022/05/08 00:28:19;;;;;;;18.92;16.05;;;13.20;99.90;;;;;;2484183;23;20422;-76
2022/05/08 00:29:20;;;;;;;21.92;16.08;;;13.20;99.90;;;;;;2484117;23;20023;-76
2022/05/08 00:30:21;;;;;;;18.73;16.25;;;13.20;99.90;;;;;;2483638;23;20028;-75
2022/05/08 00:31:22;;;;;;;19.15;15.82;;;13.10;99.90;;;;;;2495769;23;20018;-76
2022/05/08 00:32:23;;;;;;;18.88;16.20;;;13.10;99.90;;;;;;2495752;23;20007;-76
2022/05/08 00:33:27;;;;;;;19.83;16.00;;;13.10;99.90;;;;;;2494695;23;19995;-76
2022/05/08 00:34:27;;;;;;;19.30;15.80;;;13.10;99.90;;;;;;2484792;23;20003;-75
2022/05/08 00:35:28;;;;;;;18.77;15.90;;;13.10;99.90;;;;;;2484405;23;20019;-75
2022/05/08 00:36:29;;;;;;;19.85;16.40;;;13.10;99.90;;;;;;2484404;23;20023;-75
2022/05/08 00:37:29;;;;;;;19.02;15.30;;;13.10;99.90;;;;;;2482704;23;20013;-76
2022/05/08 00:38:30;;;;;;;21.90;16.48;;;13.10;99.90;;;;;;2484942;23;20012;-76
2022/05/08 00:39:32;;;;;;;19.27;16.13;;;13.10;99.90;;;;;;2497781;23;20452;-76
2022/05/08 00:40:35;;;;;;;18.73;16.45;;;13.10;99.90;;;;;;2483715;23;20008;-75
2022/05/08 00:41:36;;;;;;;19.17;15.73;;;13.00;99.90;;;;;;2483892;23;20008;-75
2022/05/08 00:42:37;;;;;;;20.55;16.20;;;13.00;99.90;;;;;;2484084;23;20638;-75
2022/05/08 00:43:39;;;;;;;19.33;15.85;;;13.00;99.90;;;;;;2483483;23;20031;-76
2022/05/08 00:44:40;;;;;;;18.77;15.65;;;13.00;99.90;;;;;;2483532;23;20462;-76
2022/05/08 00:45:40;;;;;;;19.60;15.52;;;12.90;99.90;;;;;;2483239;23;20008;-75
2022/05/08 00:46:41;;;;;;;20.38;15.40;;;12.90;99.90;;;;;;2484152;23;20083;-75
2022/05/08 00:47:42;;;;;;;17.92;15.65;;;12.90;99.90;;;;;;2483780;23;20008;-74
2022/05/08 00:48:44;;;;;;;18.48;15.93;;;12.90;99.90;;;;;;2483663;23;20039;-76
2022/05/08 00:49:45;;;;;;;20.27;16.15;;;12.90;99.90;;;;;;2483483;23;20361;-75
2022/05/08 00:50:51;;;;;;;22.90;17.05;;;12.90;99.90;;;;;;2484088;23;20331;-76
2022/05/08 00:51:52;;;;;;;20.23;17.05;;;12.90;99.90;;;;;;2484799;23;20012;-75
2022/05/08 00:52:52;;;;;;;21.73;16.92;;;12.80;99.90;;;;;;2484089;23;20521;-76
2022/05/08 00:53:56;;;;;;;22.95;17.65;;;12.80;99.90;;;;;;2483976;23;20008;-76
2022/05/08 00:54:56;;;;;;;21.73;17.00;;;12.80;99.90;;;;;;2483800;23;20012;-76
2022/05/08 00:55:57;;;;;;;22.98;17.65;;;12.80;99.90;;;;;;2483765;23;20012;-73
2022/05/08 00:56:59;;;;;;;21.90;17.48;;;12.80;99.90;;;;;;2483977;23;20688;-76
2022/05/08 00:58:00;;;;;;;21.80;17.05;;;12.80;99.90;;;;;;2484945;23;20473;-76
2022/05/08 00:59:01;;;;;;;21.10;17.10;;;12.70;99.90;;;;;;2485930;23;20068;-76
2022/05/08 01:00:04;;;;;;;21.13;17.50;;;12.70;99.90;;;;;;2485427;23;20339;-76
2022/05/08 01:01:05;;;;;;;21.00;16.40;;;12.70;99.90;;;;;;2485258;23;20034;-77
2022/05/08 01:02:06;;;;;;;21.10;16.77;;;12.60;99.90;;;;;;2484579;23;20022;-75
2022/05/08 01:03:07;;;;;;;22.60;16.85;;;12.60;99.90;;;;;;2484108;23;20026;-75
2022/05/08 01:04:08;;;;;;;20.98;16.35;;;12.60;99.90;;;;;;2483347;23;20007;-75
2022/05/08 01:05:08;;;;;;;20.60;16.23;;;12.60;99.90;;;;;;2471619;23;20069;-74
2022/05/08 01:06:14;;;;;;;17.73;14.85;;;12.60;99.90;;;;;;2483316;23;20016;-74
2022/05/08 01:07:15;;;;;;;21.20;15.48;;;12.60;99.90;;;;;;2494497;23;20042;-74
2022/05/08 01:08:16;;;;;;;17.90;14.93;;;12.60;99.90;;;;;;2494954;23;20376;-75
2022/05/08 01:09:18;;;;;;;18.65;15.07;;;12.60;99.90;;;;;;2484260;23;20013;-74
2022/05/08 01:10:19;;;;;;;16.90;14.13;;;12.60;99.90;;;;;;2495186;23;20040;-74
2022/05/08 01:11:19;;;;;;;17.00;14.13;;;12.60;99.90;;;;;;2495294;23;20461;-75
2022/05/08 01:12:23;;;;;;;16.55;14.27;;;12.50;99.90;;;;;;2495090;23;20118;-75
2022/05/08 01:13:23;;;;;;;18.23;14.75;;;12.50;99.90;;;;;;2494512;23;20035;-74
2022/05/08 01:14:25;;;;;;;17.67;14.80;;;12.50;99.90;;;;;;2483609;23;20016;-75
2022/05/08 01:15:28;;;;;;;17.63;14.05;;;12.50;99.90;;;;;;2483068;23;20738;-75
2022/05/08 01:16:29;;;;;;;16.63;14.57;;;12.50;99.90;;;;;;2483155;23;20007;-75
2022/05/08 01:17:29;;;;;;;18.55;14.60;;;12.50;99.90;;;;;;2482657;23;20469;-75
2022/05/08 01:18:30;;;;;;;17.90;14.20;;;12.40;99.90;;;;;;2495160;23;20095;-76
2022/05/08 01:19:31;;;;;;;17.15;13.93;;;12.40;99.90;;;;;;2495238;23;20490;-75
2022/05/08 01:20:31;;;;;;;18.55;14.07;;;12.40;99.90;;;;;;2483093;23;20015;-74
2022/05/08 01:21:39;;;;;;;16.83;13.82;;;12.40;99.90;;;;;;2471870;23;20015;-75
2022/05/08 01:22:40;;;;;;;17.63;13.70;;;12.40;99.90;;;;;;2483468;23;20010;-76
2022/05/08 01:23:41;;;;;;;15.63;13.68;;;12.40;99.90;;;;;;2483873;23;20011;-75
2022/05/08 01:24:42;;;;;;;15.38;12.90;;;12.30;99.90;;;;;;2484086;23;20004;-75
2022/05/08 01:25:52;;;;;;;17.33;13.13;;;12.40;99.90;;;;;;2484032;23;20358;-75
2022/05/08 01:26:52;;;;;;;15.38;13.27;;;12.30;99.90;;;;;;2484055;23;20038;-75
2022/05/08 01:27:53;;;;;;;14.70;12.95;;;12.30;99.90;;;;;;2482990;23;20761;-74
2022/05/08 01:28:54;;;;;;;15.95;13.60;;;12.30;99.90;;;;;;2483256;23;20539;-75
2022/05/08 01:29:54;;;;;;;15.57;13.18;;;12.30;99.90;;;;;;2483836;23;20095;-74
2022/05/08 01:30:55;;;;;;;16.08;13.48;;;12.30;99.90;;;;;;2483218;23;20044;-75
2022/05/08 01:31:56;;;;;;;16.70;13.38;;;12.30;99.90;;;;;;2483463;23;20016;-74
2022/05/08 01:33:00;;;;;;;14.93;13.30;;;12.20;99.90;;;;;;2484072;23;20437;-74
2022/05/08 01:34:00;;;;;;;16.45;13.75;;;12.20;99.90;;;;;;2484107;23;20026;-74
2022/05/08 01:35:02;;;;;;;15.85;13.35;;;12.30;99.90;;;;;;2483831;23;20015;-73
2022/05/08 01:36:02;;;;;;;15.52;13.00;;;12.20;99.90;;;;;;2483831;23;20480;-74
2022/05/08 01:37:03;;;;;;;15.23;13.07;;;12.20;99.90;;;;;;2483472;23;20059;-75
2022/05/08 01:38:05;;;;;;;17.35;13.30;;;12.20;99.90;;;;;;2483951;23;20012;-75
2022/05/08 01:39:09;;;;;;;16.42;12.98;;;12.20;99.90;;;;;;2484089;23;20046;-76
2022/05/08 01:40:10;;;;;;;15.07;13.07;;;12.20;99.90;;;;;;2483974;23;20004;-76
2022/05/08 01:41:12;;;;;;;15.82;14.00;;;12.20;99.90;;;;;;2484345;23;20007;-73
2022/05/08 01:42:12;;;;;;;15.25;13.30;;;12.20;99.90;;;;;;2484322;23;20467;-76
2022/05/08 01:43:13;;;;;;;16.38;13.55;;;12.20;99.90;;;;;;2495192;23;20082;-76
2022/05/08 01:44:14;;;;;;;16.05;13.57;;;12.10;99.90;;;;;;2495352;23;20018;-73
2022/05/08 01:45:15;;;;;;;15.93;13.73;;;12.10;99.90;;;;;;2484348;23;20027;-76
2022/05/08 01:46:15;;;;;;;16.38;13.55;;;12.10;99.90;;;;;;2484055;23;20033;-76
2022/05/08 01:48:35;;;;;;;15.88;13.30;;;12.10;99.90;;;;;;2483953;23;20354;-75
2022/05/08 01:49:36;;;;;;;15.63;13.10;;;12.10;99.90;;;;;;2483988;23;20071;-74
2022/05/08 01:50:37;;;;;;;14.43;12.90;;;12.10;99.90;;;;;;2484032;23;20003;-76
2022/05/08 01:51:38;;;;;;;17.48;13.77;;;12.10;99.90;;;;;;2484273;23;20012;-75
2022/05/08 01:52:39;;;;;;;16.88;13.18;;;12.00;99.90;;;;;;2484128;23;20000;-74
2022/05/08 01:53:39;;;;;;;14.95;12.98;;;12.00;99.90;;;;;;2484005;23;20048;-76
2022/05/08 01:54:40;;;;;;;14.70;12.70;;;12.00;99.90;;;;;;2484176;23;20485;-73
2022/05/08 01:55:41;;;;;;;16.88;12.13;;;12.00;99.90;;;;;;2483911;23;20010;-76
2022/05/08 01:56:41;;;;;;;17.00;13.35;;;12.00;99.90;;;;;;2483037;23;20094;-75
2022/05/08 01:57:42;;;;;;;15.50;12.38;;;12.00;99.90;;;;;;2482064;23;20014;-75
2022/05/08 01:58:43;;;;;;;14.35;12.23;;;12.00;99.90;;;;;;2494725;23;19999;-77
2022/05/08 01:59:44;;;;;;;15.57;12.73;;;12.00;99.90;;;;;;2483943;23;20345;-75
2022/05/08 02:00:45;;;;;;;14.32;12.32;;;12.00;99.90;;;;;;2483647;23;20003;-75
2022/05/08 02:01:46;;;;;;;14.50;13.00;;;12.00;99.90;;;;;;2483028;23;20006;-75
2022/05/08 02:02:48;;;;;;;17.17;12.75;;;12.00;99.90;;;;;;2483279;23;20596;-74
2022/05/08 02:03:49;;;;;;;13.65;12.02;;;11.90;99.90;;;;;;2484049;23;20385;-74
2022/05/08 02:04:49;;;;;;;16.27;12.63;;;11.90;99.90;;;;;;2483116;23;20011;-74
2022/05/08 02:05:50;;;;;;;15.20;12.55;;;11.90;99.90;;;;;;2471832;24;20590;-76
2022/05/08 02:06:51;;;;;;;15.52;12.55;;;12.00;99.90;;;;;;2483346;23;20530;-74
2022/05/08 02:07:53;;;;;;;15.73;13.05;;;11.90;99.90;;;;;;2483975;23;20083;-75
2022/05/08 02:08:54;;;;;;;16.65;12.23;;;11.90;99.90;;;;;;2484352;23;20018;-75
2022/05/08 02:09:55;;;;;;;14.25;12.15;;;11.90;99.90;;;;;;2484624;23;20019;-75
2022/05/08 02:10:56;;;;;;;15.27;12.98;;;11.80;99.90;;;;;;2484268;23;20035;-74
2022/05/08 02:11:57;;;;;;;13.88;12.35;;;11.90;99.90;;;;;;2484444;23;20453;-74
2022/05/08 02:12:57;;;;;;;13.43;11.98;;;11.90;99.90;;;;;;2485241;23;20456;-75
2022/05/08 02:13:59;;;;;;;14.65;12.80;;;11.80;99.90;;;;;;2484844;23;20091;-75
2022/05/08 02:14:59;;;;;;;16.02;13.48;;;11.80;99.90;;;;;;2484695;23;20020;-75
2022/05/08 02:16:00;;;;;;;14.93;12.85;;;11.80;99.90;;;;;;2495639;23;20021;-77
2022/05/08 02:17:00;;;;;;;15.20;12.77;;;11.80;99.90;;;;;;2494995;23;20110;-74
2022/05/08 02:18:03;;;;;;;14.38;12.68;;;11.80;99.90;;;;;;2495800;23;20015;-77
2022/05/08 02:19:04;;;;;;;15.80;12.70;;;11.80;99.90;;;;;;2487302;23;20004;-76
2022/05/08 02:20:06;;;;;;;15.43;13.57;;;11.80;99.90;;;;;;2490078;23;20015;-75
2022/05/08 02:21:07;;;;;;;14.40;12.32;;;11.80;99.90;;;;;;2489852;23;20039;-73
2022/05/08 02:22:07;;;;;;;15.30;13.18;;;11.80;99.90;;;;;;2490048;23;20014;-75
2022/05/08 02:23:09;;;;;;;14.48;12.80;;;11.80;99.90;;;;;;2491189;23;20004;-75
2022/05/08 02:24:09;;;;;;;14.20;12.70;;;11.80;99.90;;;;;;2490261;23;20000;-76
2022/05/08 02:25:10;;;;;;;14.55;12.85;;;11.80;99.90;;;;;;2491448;23;20055;-73
2022/05/08 02:26:11;;;;;;;15.48;13.23;;;11.80;99.90;;;;;;2491364;23;20056;-74
2022/05/08 02:27:11;;;;;;;14.93;13.10;;;11.80;99.90;;;;;;2504149;23;20055;-73
2022/05/08 02:28:15;;;;;;;16.58;12.77;;;11.80;99.90;;;;;;2503603;23;20082;-75
2022/05/08 02:29:16;;;;;;;14.68;12.57;;;11.80;99.90;;;;;;2492866;23;20035;-74
2022/05/08 02:30:18;;;;;;;15.77;13.00;;;11.80;99.90;;;;;;2492737;23;20012;-77
2022/05/08 02:31:19;;;;;;;15.93;12.85;;;11.80;99.90;;;;;;2492101;23;20072;-75
2022/05/08 02:32:19;;;;;;;16.95;13.40;;;11.80;99.90;;;;;;2489874;23;20558;-74
2022/05/08 02:33:21;;;;;;;16.35;12.88;;;11.80;99.90;;;;;;2488728;23;20011;-74
2022/05/08 02:34:22;;;;;;;15.05;12.82;;;11.80;99.90;;;;;;2501456;23;20043;-74
2022/05/08 02:35:23;;;;;;;15.57;12.55;;;11.80;99.90;;;;;;2491180;23;20382;-75
2022/05/08 02:36:24;;;;;;;16.35;13.02;;;11.70;99.90;;;;;;2491985;23;20028;-75
2022/05/08 02:37:24;;;;;;;15.48;12.55;;;11.70;99.90;;;;;;2491501;23;20015;-74
2022/05/08 02:38:25;;;;;;;15.48;13.23;;;11.70;99.90;;;;;;2491468;23;20007;-74
2022/05/08 02:39:25;;;;;;;15.68;13.10;;;11.70;99.90;;;;;;2485960;23;20306;-72
2022/05/08 02:40:26;;;;;;;14.23;12.57;;;11.70;99.90;;;;;;2485450;23;20034;-72
2022/05/08 02:41:26;;;;;;;14.13;12.52;;;11.70;99.90;;;;;;2485456;23;20457;-73
2022/05/08 02:42:27;;;;;;;16.13;12.55;;;11.70;99.90;;;;;;2485535;23;20084;-72
2022/05/08 02:43:28;;;;;;;14.20;12.70;;;11.70;99.90;;;;;;2496311;23;20051;-75
2022/05/08 02:44:29;;;;;;;15.05;13.10;;;11.70;99.90;;;;;;2496367;23;20026;-72
2022/05/08 02:45:29;;;;;;;15.65;12.98;;;11.70;99.90;;;;;;2485095;23;20414;-73
2022/05/08 02:46:30;;;;;;;16.88;12.80;;;11.60;99.90;;;;;;2496216;23;20082;-74
2022/05/08 02:47:33;;;;;;;16.08;12.73;;;11.60;99.90;;;;;;2495639;23;19996;-74
2022/05/08 02:48:34;;;;;;;16.83;12.88;;;11.60;99.90;;;;;;2496435;23;20023;-76
2022/05/08 02:49:35;;;;;;;14.77;13.05;;;11.60;99.90;;;;;;2484434;23;20000;-73
2022/05/08 02:50:36;;;;;;;15.75;12.85;;;11.60;99.90;;;;;;2484510;23;20010;-74
2022/05/08 02:51:36;;;;;;;15.13;12.73;;;11.60;99.90;;;;;;2485375;23;20659;-75
2022/05/08 02:52:38;;;;;;;15.68;12.57;;;11.60;99.90;;;;;;2486031;23;20015;-75
2022/05/08 02:53:39;;;;;;;15.95;12.75;;;11.60;99.90;;;;;;2486158;23;20727;-73
2022/05/08 02:54:39;;;;;;;14.20;12.70;;;11.60;99.90;;;;;;2486110;23;20014;-73
2022/05/08 02:58:34;;;;;;;14.45;12.63;;;11.60;99.90;;;;;;2485886;23;20011;-77
2022/05/08 02:59:34;;;;;;;13.77;12.30;;;11.50;99.90;;;;;;2485182;23;20010;-75
2022/05/08 03:00:35;;;;;;;16.50;11.93;;;11.50;99.90;;;;;;2485840;23;20003;-74
2022/05/08 03:01:36;;;;;;;14.18;12.68;;;11.50;99.90;;;;;;2488402;23;20006;-75
2022/05/08 03:02:39;;;;;;;15.40;12.70;;;11.50;99.90;;;;;;2489200;23;20049;-73
2022/05/08 03:03:40;;;;;;;15.48;13.15;;;11.50;99.90;;;;;;2488965;23;20004;-74
2022/05/08 03:04:41;;;;;;;14.02;12.50;;;11.50;99.90;;;;;;2488659;23;20015;-74
2022/05/08 03:05:47;;;;;;;15.88;12.65;;;11.50;99.90;;;;;;2487583;23;20007;-73
2022/05/08 03:06:47;;;;;;;15.35;12.88;;;11.50;99.90;;;;;;2484338;23;20066;-74
2022/05/08 03:07:48;;;;;;;14.95;13.10;;;11.50;99.90;;;;;;2484688;23;20135;-73
2022/05/08 03:08:50;;;;;;;15.23;12.93;;;11.50;99.90;;;;;;2485197;23;20031;-76
2022/05/08 03:09:51;;;;;;;14.52;12.60;;;11.50;99.90;;;;;;2495538;23;20106;-74
2022/05/08 03:12:11;;;;;;;14.40;12.48;;;11.40;99.90;;;;;;2484717;23;20043;-75
2022/05/08 03:13:12;;;;;;;16.15;12.98;;;11.40;99.90;;;;;;2484845;23;20039;-73
2022/05/08 03:14:12;;;;;;;14.45;12.90;;;11.40;99.90;;;;;;2484096;23;20590;-73
2022/05/08 03:15:13;;;;;;;14.88;12.73;;;11.40;99.90;;;;;;2472539;23;20422;-76
2022/05/08 03:16:14;;;;;;;15.10;12.95;;;11.40;99.90;;;;;;2472447;24;20012;-73
2022/05/08 03:17:15;;;;;;;15.18;13.48;;;11.40;99.90;;;;;;2472232;24;20047;-76
2022/05/08 03:18:16;;;;;;;15.07;13.05;;;11.30;99.90;;;;;;2484003;23;20014;-75
2022/05/08 03:19:18;;;;;;;15.07;12.52;;;11.40;99.90;;;;;;2484331;23;20381;-71
2022/05/08 03:20:19;;;;;;;14.43;12.48;;;11.30;99.90;;;;;;2484475;23;20011;-76
2022/05/08 03:21:20;;;;;;;15.55;12.95;;;11.30;99.90;;;;;;2484481;23;20457;-73
2022/05/08 03:22:20;;;;;;;15.65;12.77;;;11.30;99.90;;;;;;2484339;23;20681;-74
2022/05/08 03:23:22;;;;;;;15.02;13.00;;;11.30;99.90;;;;;;2496630;23;20487;-76
2022/05/08 03:24:27;;;;;;;14.95;13.30;;;11.30;99.90;;;;;;2496472;23;20429;-74
2022/05/08 03:25:27;;;;;;;14.68;12.85;;;11.30;99.90;;;;;;2496599;23;20011;-74
2022/05/08 03:26:31;;;;;;;15.10;13.02;;;11.30;99.90;;;;;;2485535;23;20362;-75
2022/05/08 03:27:31;;;;;;;15.13;12.80;;;11.30;99.90;;;;;;2484677;23;20410;-76
2022/05/08 03:28:33;;;;;;;15.82;12.48;;;11.30;99.90;;;;;;2495985;23;20040;-74
2022/05/08 03:29:34;;;;;;;14.88;12.70;;;11.30;99.90;;;;;;2496024;23;20003;-75
2022/05/08 03:30:34;;;;;;;15.00;12.70;;;11.20;99.90;;;;;;2484721;23;20071;-74
2022/05/08 03:31:35;;;;;;;17.65;12.80;;;11.30;99.90;;;;;;2485197;23;20541;-73
2022/05/08 03:32:35;;;;;;;14.65;12.50;;;11.20;99.90;;;;;;2484976;23;20000;-72
2022/05/08 03:33:37;;;;;;;16.23;13.18;;;11.20;99.90;;;;;;2484894;23;20004;-74
2022/05/08 03:34:37;;;;;;;15.73;12.82;;;11.20;99.90;;;;;;2483856;23;20082;-74
2022/05/08 03:35:39;;;;;;;19.00;13.55;;;11.20;99.90;;;;;;2483995;23;20607;-75
2022/05/08 03:36:40;;;;;;;15.65;13.07;;;11.20;99.90;;;;;;2484622;23;20004;-75
2022/05/08 03:37:41;;;;;;;14.38;12.73;;;11.20;99.90;;;;;;2483868;23;20074;-73
2022/05/08 03:38:43;;;;;;;15.40;12.90;;;11.20;99.90;;;;;;2484417;23;20015;-73
2022/05/08 03:39:44;;;;;;;15.52;12.57;;;11.20;99.90;;;;;;2484482;23;20015;-75
2022/05/08 03:40:45;;;;;;;15.00;12.80;;;11.20;99.90;;;;;;2484493;23;20079;-74
2022/05/08 03:41:45;;;;;;;15.93;12.75;;;11.30;99.90;;;;;;2483859;23;20008;-75
2022/05/08 03:42:46;;;;;;;15.40;12.48;;;11.30;99.90;;;;;;2483740;23;20760;-75
2022/05/08 03:43:48;;;;;;;14.55;12.77;;;11.30;99.90;;;;;;2484305;23;20099;-77
2022/05/08 03:44:48;;;;;;;14.52;12.35;;;11.30;99.90;;;;;;2484298;23;20027;-74
2022/05/08 03:45:49;;;;;;;15.50;12.75;;;11.30;99.90;;;;;;2495196;23;20007;-74
2022/05/08 03:46:49;;;;;;;15.23;12.60;;;11.30;99.90;;;;;;2495366;23;20028;-74
2022/05/08 03:47:52;;;;;;;15.95;12.98;;;11.40;99.90;;;;;;2484041;23;20006;-75
2022/05/08 03:48:53;;;;;;;14.13;12.23;;;11.40;99.90;;;;;;2483791;23;20015;-74
2022/05/08 03:49:53;;;;;;;14.98;12.68;;;11.40;99.90;;;;;;2483518;23;20087;-78
2022/05/08 03:50:54;;;;;;;13.27;11.88;;;11.40;99.90;;;;;;2484176;23;20012;-73
2022/05/08 03:51:54;;;;;;;14.85;11.63;;;11.50;99.90;;;;;;2483523;23;20015;-73
2022/05/08 03:52:56;;;;;;;14.13;12.05;;;11.50;99.90;;;;;;2483636;23;20010;-73
2022/05/08 03:53:57;;;;;;;15.10;12.35;;;11.50;99.90;;;;;;2484325;23;20389;-73
2022/05/08 03:54:59;;;;;;;14.07;12.20;;;11.60;99.90;;;;;;2484346;23;20019;-75
2022/05/08 03:56:00;;;;;;;14.45;12.00;;;11.60;99.90;;;;;;2484332;23;20070;-74
2022/05/08 03:57:01;;;;;;;14.25;12.10;;;11.60;99.90;;;;;;2494833;23;20043;-74
2022/05/08 03:58:02;;;;;;;14.48;12.02;;;11.60;99.90;;;;;;2495408;23;20007;-73
2022/05/08 03:59:03;;;;;;;14.02;12.15;;;11.70;99.90;;;;;;2484465;23;20011;-75
2022/05/08 04:00:05;;;;;;;13.73;12.05;;;11.70;99.90;;;;;;2484208;23;20007;-74
2022/05/08 04:01:13;;;;;;;14.10;11.90;;;11.80;99.90;;;;;;2484581;23;20406;-76
2022/05/08 04:02:13;;;;;;;13.82;11.40;;;11.80;99.90;;;;;;2495016;23;20012;-76
2022/05/08 04:03:14;;;;;;;15.68;11.85;;;11.80;99.90;;;;;;2483674;23;20004;-73
2022/05/08 04:04:14;;;;;;;13.02;11.45;;;11.90;99.90;;;;;;2483624;23;20091;-74
2022/05/08 04:05:15;;;;;;;13.90;11.38;;;12.00;99.90;;;;;;2495605;23;20011;-74
2022/05/08 04:06:16;;;;;;;12.80;11.25;;;11.90;99.90;;;;;;2484300;23;20011;-73
2022/05/08 04:07:17;;;;;;;13.13;11.27;;;12.00;99.90;;;;;;2482902;23;20454;-76
2022/05/08 04:08:23;;;;;;;12.25;10.95;;;12.00;99.90;;;;;;2473431;23;20008;-76
2022/05/08 04:09:24;;;;;;;13.38;11.55;;;12.10;99.90;;;;;;2483756;23;20064;-74
2022/05/08 04:10:24;;;;;;;13.50;11.82;;;12.20;99.90;;;;;;2483362;23;20038;-74
2022/05/08 04:11:29;;;;;;;12.75;11.13;;;12.20;99.90;;;;;;2483744;23;20035;-76
2022/05/08 04:12:30;;;;;;;12.20;10.95;;;12.20;99.90;;;;;;2483728;23;20012;-74
2022/05/08 04:13:31;;;;;;;13.50;11.32;;;12.20;99.90;;;;;;2483688;23;20063;-73
2022/05/08 04:14:31;;;;;;;12.10;10.65;;;12.20;99.90;;;;;;2484389;23;20023;-72
2022/05/08 04:16:51;;;;;;;12.13;10.60;;;12.30;99.90;;;;;;2483392;23;20011;-75
2022/05/08 04:17:52;;;;;;;15.32;10.98;;;12.40;99.90;;;;;;2483279;23;20016;-75
2022/05/08 04:18:52;;;;;;;11.73;10.38;;;12.40;99.90;;;;;;2483711;23;20137;-72
2022/05/08 04:19:53;;;;;;;11.27;10.07;;;12.40;99.90;;;;;;2483638;23;20035;-75
2022/05/08 04:20:53;;;;;;;12.88;10.68;;;12.50;99.90;;;;;;2484660;23;20015;-72
2022/05/08 04:24:16;;;;;;;11.40;10.20;;;12.60;99.90;;;;;;2485020;23;20701;-73
2022/05/08 04:24:34;;;;;;;10.93;9.82;;;13.00;99.90;;;;;;2485154;23;20008;-74
2022/05/08 04:25:34;;;;;;;10.98;9.88;;;13.20;99.90;;;;;;2485197;23;19992;-73
2022/05/08 04:26:35;;;;;;;12.38;9.80;;;13.50;99.90;;;;;;2485000;23;20636;-71
2022/05/08 04:27:36;;;;;;;12.75;10.13;;;13.70;99.90;;;;;;2495587;23;20023;-76
2022/05/08 04:28:36;;;;;;;12.95;9.88;;;13.90;99.90;;;;;;2496244;23;20002;-73
2022/05/08 04:29:37;;;;;;;12.70;9.70;;;14.10;99.90;;;;;;2485204;23;20337;-72
2022/05/08 04:30:38;;;;;;;14.68;10.70;;;14.30;99.90;;;;;;2485174;23;20031;-75
2022/05/08 04:31:38;;;;;;;11.05;9.95;;;14.50;99.90;;;;;;2485621;23;20015;-72
2022/05/08 04:32:39;;;;;;;10.70;9.60;;;14.70;99.90;;;;;;2496241;23;20468;-72
2022/05/08 04:33:39;;;;;;;11.60;10.07;;;14.90;99.90;;;;;;2496332;23;20341;-72
2022/05/08 04:34:40;;;;;;;9.68;8.68;;;15.00;99.90;;;;;;2496111;23;20026;-75
2022/05/08 04:35:41;;;;;;;10.32;9.00;;;15.20;99.90;;;;;;2496171;23;20007;-73
2022/05/08 04:36:41;;;;;;;10.73;9.30;;;15.30;99.90;;;;;;2496070;23;20078;-73
2022/05/08 04:37:42;;;;;;;10.73;9.63;;;15.50;99.90;;;;;;2484634;23;20000;-72
2022/05/08 04:38:43;;;;;;;10.55;9.35;;;15.50;99.90;;;;;;2484532;23;20020;-72
2022/05/08 04:39:43;;;;;;;10.40;9.27;;;15.60;99.90;;;;;;2484664;23;20011;-74
2022/05/08 04:40:44;;;;;;;10.07;8.80;;;15.70;99.90;;;;;;2484540;23;20003;-74
2022/05/08 04:41:44;;;;;;;9.77;8.77;;;15.90;99.90;;;;;;2485016;23;20035;-73
2022/05/08 04:42:45;;;;;;;9.95;8.93;;;16.00;99.40;;;;;;2484646;23;19996;-73
2022/05/08 04:43:45;;;;;;;10.68;9.10;;;16.10;98.10;;;;;;2485867;23;20004;-73
2022/05/08 04:44:46;;;;;;;10.70;9.23;;;16.20;97.30;;;;;;2485449;23;20429;-73
2022/05/08 04:45:46;;;;;;;10.27;9.18;;;16.30;97.00;;;;;;2485372;23;20072;-73
2022/05/08 04:46:47;;;;;;;10.82;9.07;;;16.30;96.00;;;;;;2485043;23;20092;-73
2022/05/08 04:47:47;;;;;;;10.20;9.10;;;16.30;95.70;;;;;;2484676;23;20018;-72
2022/05/08 04:48:48;;;;;;;10.43;9.32;;;16.40;95.10;;;;;;2485050;23;20011;-77
2022/05/08 04:49:49;;;;;;;10.40;8.95;;;16.40;94.70;;;;;;2485085;23;20015;-74
2022/05/08 04:50:49;;;;;;;10.10;8.93;;;16.50;94.00;;;;;;2484612;23;20003;-73
2022/05/08 04:51:50;;;;;;;11.68;8.93;;;16.50;93.50;;;;;;2485041;23;20012;-73
2022/05/08 04:52:50;;;;;;;10.05;9.00;;;16.50;93.20;;;;;;2484847;23;20446;-76
2022/05/08 04:53:51;;;;;;;10.98;8.80;;;16.50;93.20;;;;;;2484738;23;20012;-73
2022/05/08 04:54:52;;;;;;;10.88;8.77;;;16.50;93.40;;;;;;2484538;23;20036;-75
2022/05/08 04:55:52;;;;;;;10.77;9.65;;;16.50;93.00;;;;;;2484350;23;20032;-76
2022/05/08 04:56:53;;;;;;;10.63;9.38;;;16.40;92.80;;;;;;2483981;23;20584;-74
2022/05/08 04:57:53;;;;;;;10.57;9.48;;;16.20;93.10;;;;;;2483873;23;20401;-73
2022/05/08 04:58:54;;;;;;;11.82;9.90;;;16.00;93.60;;;;;;2484413;23;20056;-74
2022/05/08 04:59:55;;;;;;;12.88;9.80;;;15.80;94.30;;;;;;2484712;23;20090;-73
2022/05/08 05:00:58;;;;;;;11.48;10.07;;;15.50;95.20;;;;;;2483272;23;20018;-75
2022/05/08 05:02:00;;;;;;;12.05;10.13;;;15.40;96.10;;;;;;2483744;23;20008;-75
2022/05/08 05:03:01;;;;;;;11.32;10.07;;;15.30;96.80;;;;;;2484201;23;20078;-77
2022/05/08 05:04:03;;;;;;;10.60;9.50;;;15.20;97.40;;;;;;2484496;23;20346;-75
2022/05/08 05:05:05;;;;;;;11.57;10.38;;;15.20;97.90;;;;;;2484129;23;20076;-75
2022/05/08 05:06:06;;;;;;;11.18;9.98;;;15.10;98.10;;;;;;2484354;23;20063;-75
2022/05/08 05:07:08;;;;;;;11.55;10.02;;;14.90;98.70;;;;;;2483547;23;20004;-75
2022/05/08 05:08:09;;;;;;;11.23;10.00;;;14.80;99.30;;;;;;2483898;23;20776;-75
2022/05/08 05:09:09;;;;;;;10.95;9.75;;;14.70;99.90;;;;;;2484102;23;20008;-75
2022/05/08 05:10:11;;;;;;;14.05;12.30;;;14.60;99.90;;;;;;2483768;23;20027;-75
2022/05/08 05:11:11;;;;;;;15.63;11.98;;;14.50;99.90;;;;;;2484095;23;20011;-75
2022/05/08 05:12:12;;;;;;;16.98;11.63;;;14.40;99.90;;;;;;2483939;23;20054;-75
2022/05/08 05:13:13;;;;;;;13.05;11.23;;;14.30;99.90;;;;;;2484396;23;20019;-74
2022/05/08 05:14:13;;;;;;;12.15;10.82;;;14.20;99.90;;;;;;2484233;23;20437;-72
2022/05/08 05:15:14;;;;;;;11.85;10.55;;;14.10;99.90;;;;;;2484915;23;20012;-78
2022/05/08 05:16:15;;;;;;;11.50;10.30;;;14.00;99.90;;;;;;2484519;23;20011;-74
2022/05/08 05:17:15;;;;;;;12.80;11.20;;;14.00;99.90;;;;;;2483636;23;20505;-74
2022/05/08 05:18:16;;;;;;;11.32;10.15;;;14.00;99.90;;;;;;2484020;23;20015;-73
2022/05/08 05:19:17;;;;;;;11.90;10.63;;;14.00;99.90;;;;;;2483273;23;20046;-72